createdAt,value
2022-08-05T00:01:36.304Z,98308.91
2022-08-05T00:04:17.183Z,98308.06
2022-08-05T00:06:47.223Z,98309.94
2022-08-05T00:09:19.475Z,98309.94
2022-08-05T00:11:55.540Z,98305.59
2022-08-05T00:14:27.676Z,98308.06
2022-08-05T00:16:58.022Z,98308.06
2022-08-05T00:19:33.273Z,98308.28
2022-08-05T00:22:11.362Z,98304.72
2022-08-05T00:24:42.378Z,98304.72
2022-08-05T00:27:14.048Z,98297.03
2022-08-05T00:29:46.513Z,98293.31
2022-08-05T00:32:15.815Z,98294.53
2022-08-05T00:35:04.725Z,98293.50
2022-08-05T00:37:50.763Z,98291.63
2022-08-05T00:40:26.931Z,98290.78
2022-08-05T00:42:58.111Z,98287.25
2022-08-05T00:45:38.765Z,98291.84
2022-08-05T00:48:09.439Z,98294.72
2022-08-05T00:50:39.509Z,98286.63
2022-08-05T00:54:00.195Z,98287.66
2022-08-05T00:55:59.215Z,98293.06
2022-08-05T00:58:28.719Z,98280.38
2022-08-05T01:00:58.528Z,98283.28
2022-08-05T01:03:31.063Z,98279.75
2022-08-05T01:06:05.490Z,98282.44
2022-08-05T01:08:42.951Z,98279.75
2022-08-05T01:11:21.928Z,98282.44
2022-08-05T01:14:08.730Z,98280.78
2022-08-05T01:16:47.163Z,98272.69
2022-08-05T01:19:46.104Z,98271.88
2022-08-05T01:22:28.083Z,98273.69
2022-08-05T01:25:08.433Z,98267.28
2022-08-05T01:28:04.268Z,98267.28
2022-08-05T01:30:33.489Z,98260.41
2022-08-05T01:33:04.135Z,98259.38
2022-08-05T01:35:52.192Z,98263.94
2022-08-05T01:38:27.399Z,98266.66
2022-08-05T01:40:59.375Z,98247.75
2022-08-05T01:43:29.430Z,98257.72
2022-08-05T01:45:58.380Z,98256.25
2022-08-05T01:48:37.000Z,98256.44
2022-08-05T01:51:12.426Z,98254.78
2022-08-05T01:53:58.347Z,98253.31
2022-08-05T01:58:10.809Z,98247.06
2022-08-05T01:59:22.122Z,98246.44
2022-08-05T02:01:51.075Z,98248.31
2022-08-05T02:04:19.925Z,98251.00
2022-08-05T02:06:48.435Z,98248.09
2022-08-05T02:09:16.953Z,98240.22
2022-08-05T02:11:52.868Z,98234.81
2022-08-05T02:14:28.915Z,98238.34
2022-08-05T02:17:04.572Z,98241.88
2022-08-05T02:19:41.370Z,98243.75
2022-08-05T02:22:25.849Z,98237.28
2022-08-05T02:25:03.659Z,98229.41
2022-08-05T02:27:57.896Z,98235.63
2022-08-05T02:30:23.323Z,98236.47
2022-08-05T02:32:56.996Z,98226.50
2022-08-05T02:35:28.061Z,98231.47
2022-08-05T02:38:02.254Z,98222.53
2022-08-05T02:40:31.147Z,98221.50
2022-08-05T02:42:59.645Z,98227.72
2022-08-05T02:45:52.485Z,98225.66
2022-08-05T02:48:18.094Z,98220.25
2022-08-05T02:50:48.485Z,98222.97
2022-08-05T02:53:20.822Z,98221.50
2022-08-05T02:55:55.079Z,98220.66
2022-08-05T02:58:30.353Z,98222.53
2022-08-05T03:01:02.627Z,98223.56
2022-08-05T03:03:34.331Z,98222.31
2022-08-05T03:06:53.881Z,98212.56
2022-08-05T03:09:08.311Z,98221.91
2022-08-05T03:11:56.678Z,98215.66
2022-08-05T03:14:25.419Z,98225.81
2022-08-05T03:16:56.224Z,98218.78
2022-08-05T03:19:34.212Z,98220.66
2022-08-05T03:22:16.415Z,98227.50
2022-08-05T03:24:50.683Z,98214.84
2022-08-05T03:27:19.746Z,98230.22
2022-08-05T03:30:08.483Z,98226.66
2022-08-05T03:32:38.696Z,98226.88
2022-08-05T03:35:09.085Z,98215.25
2022-08-05T03:37:46.014Z,98224.34
2022-08-05T03:40:24.387Z,98221.66
2022-08-05T03:43:16.020Z,98227.06
2022-08-05T03:45:57.713Z,98212.53
2022-08-05T03:48:29.213Z,98222.47
2022-08-05T03:52:39.199Z,98214.38
2022-08-05T03:55:50.895Z,98219.78
2022-08-05T03:56:47.069Z,98221.47
2022-08-05T03:59:20.267Z,98210.44
2022-08-05T04:01:51.169Z,98213.56
2022-08-05T04:04:22.077Z,98205.47
2022-08-05T04:06:54.914Z,98210.66
2022-08-05T04:09:26.431Z,98213.38
2022-08-05T04:11:56.686Z,98211.69
2022-08-05T04:14:30.331Z,98214.38
2022-08-05T04:17:02.937Z,98214.38
2022-08-05T04:19:32.969Z,98218.13
2022-08-05T04:22:09.392Z,98223.53
2022-08-05T04:24:44.090Z,98220.00
2022-08-05T04:27:15.188Z,98216.25
2022-08-05T04:29:43.918Z,98214.38
2022-08-05T04:32:13.686Z,98217.72
2022-08-05T04:34:49.896Z,98216.72
2022-08-05T04:37:31.573Z,98210.28
2022-08-05T04:40:14.847Z,98211.31
2022-08-05T04:42:48.095Z,98207.56
2022-08-05T04:45:30.980Z,98212.97
2022-08-05T04:48:07.032Z,98203.22
2022-08-05T04:51:01.999Z,98209.22
2022-08-05T04:53:33.609Z,98202.81
2022-08-05T04:56:32.399Z,98205.28
2022-08-05T04:58:52.986Z,98213.19
2022-08-05T05:02:05.511Z,98202.41
2022-08-05T05:04:10.228Z,98198.88
2022-08-05T05:06:44.748Z,98198.88
2022-08-05T05:09:17.242Z,98204.06
2022-08-05T05:11:54.151Z,98202.41
2022-08-05T05:14:28.080Z,98205.75
2022-08-05T05:17:00.843Z,98207.22
2022-08-05T05:19:36.279Z,98203.66
2022-08-05T05:22:23.986Z,98205.34
2022-08-05T05:24:57.052Z,98203.66
2022-08-05T05:27:41.677Z,98207.22
2022-08-05T05:30:30.717Z,98212.41
2022-08-05T05:33:09.030Z,98219.84
2022-08-05T05:35:45.330Z,98221.53
2022-08-05T05:38:15.115Z,98221.13
2022-08-05T05:40:51.913Z,98217.38
2022-08-05T05:43:22.315Z,98212.00
2022-08-05T05:45:56.842Z,98222.78
2022-08-05T05:48:27.742Z,98222.38
2022-08-05T05:50:56.342Z,98218.66
2022-08-05T05:53:26.273Z,98218.66
2022-08-05T05:56:00.843Z,98213.25
2022-08-05T05:58:32.497Z,98220.72
2022-08-05T06:01:12.465Z,98224.06
2022-08-05T06:04:00.537Z,98214.09
2022-08-05T06:06:31.382Z,98212.84
2022-08-05T06:09:04.750Z,98220.78
2022-08-05T06:11:33.443Z,98211.41
2022-08-05T06:14:02.264Z,98211.84
2022-08-05T06:16:36.755Z,98212.88
2022-08-05T06:19:07.425Z,98213.72
2022-08-05T06:21:38.344Z,98209.34
2022-08-05T06:24:12.714Z,98217.84
2022-08-05T06:26:51.364Z,98211.19
2022-08-05T06:29:43.048Z,98210.16
2022-08-05T06:32:20.912Z,98203.94
2022-08-05T06:34:56.716Z,98202.06
2022-08-05T06:37:57.020Z,98209.97
2022-08-05T06:40:18.478Z,98206.25
2022-08-05T06:42:51.751Z,98206.25
2022-08-05T06:46:02.882Z,98216.03
2022-08-05T06:48:37.107Z,98211.44
2022-08-05T06:51:00.213Z,98221.44
2022-08-05T06:53:29.518Z,98214.97
2022-08-05T06:56:00.114Z,98211.22
2022-08-05T06:58:35.377Z,98212.09
2022-08-05T07:01:06.079Z,98212.91
2022-08-05T07:03:34.857Z,98211.88
2022-08-05T07:06:06.266Z,98207.28
2022-08-05T07:08:47.906Z,98203.75
2022-08-05T07:11:22.379Z,98205.44
2022-08-05T07:14:15.855Z,98203.13
2022-08-05T07:18:00.931Z,98212.50
2022-08-05T07:20:31.296Z,98204.00
2022-08-05T07:22:30.234Z,98211.72
2022-08-05T07:25:22.620Z,98204.25
2022-08-05T07:27:57.134Z,98209.63
2022-08-05T07:30:31.993Z,98211.72
2022-08-05T07:33:01.918Z,98212.34
2022-08-05T07:36:02.938Z,98206.53
2022-08-05T07:38:34.513Z,98203.44
2022-08-05T07:42:07.246Z,98208.44
2022-08-05T07:43:57.835Z,98213.44
2022-08-05T07:46:27.335Z,98207.00
2022-08-05T07:49:02.440Z,98203.47
2022-08-05T07:51:36.663Z,98204.28
2022-08-05T07:54:08.515Z,98202.22
2022-08-05T07:57:01.306Z,98204.09
2022-08-05T07:59:39.047Z,98203.69
2022-08-05T08:02:15.968Z,98201.81
2022-08-05T08:04:47.639Z,98203.47
2022-08-05T08:07:17.910Z,98202.22
2022-08-05T08:09:46.825Z,98205.16
2022-08-05T08:12:35.673Z,98199.75
2022-08-05T08:15:14.269Z,98205.75
2022-08-05T08:17:49.836Z,98203.91
2022-08-05T08:21:00.085Z,98208.69
2022-08-05T08:24:02.093Z,98206.41
2022-08-05T08:26:02.662Z,98202.44
2022-08-05T08:28:37.166Z,98201.63
2022-08-05T08:31:23.151Z,98204.75
2022-08-05T08:33:55.378Z,98208.91
2022-08-05T08:36:38.538Z,98210.59
2022-08-05T08:39:15.708Z,98212.25
2022-08-05T08:41:50.974Z,98206.84
2022-08-05T08:45:17.203Z,98210.59
2022-08-05T08:47:47.149Z,98211.81
2022-08-05T08:50:06.224Z,98213.28
2022-08-05T08:52:53.141Z,98214.75
2022-08-05T08:56:02.444Z,98216.19
2022-08-05T08:58:13.041Z,98217.66
2022-08-05T09:00:42.893Z,98206.41
2022-08-05T09:03:16.257Z,98206.84
2022-08-05T09:06:09.203Z,98206.84
2022-08-05T09:08:40.376Z,98209.94
2022-08-05T09:11:13.704Z,98210.78
2022-08-05T09:14:09.195Z,98206.00
2022-08-05T09:16:32.541Z,98207.88
2022-08-05T09:19:06.868Z,98193.13
2022-08-05T09:22:17.652Z,98190.41
2022-08-05T09:24:24.405Z,98185.63
2022-08-05T09:26:56.331Z,98181.91
2022-08-05T09:29:44.757Z,98181.88
2022-08-05T09:32:43.067Z,98175.47
2022-08-05T09:35:26.303Z,98183.16
2022-08-05T09:38:12.893Z,98182.94
2022-08-05T09:40:53.569Z,98175.03
2022-08-05T09:43:41.138Z,98184.38
2022-08-05T09:46:27.480Z,98171.50
2022-08-05T09:49:07.930Z,98165.88
2022-08-05T09:51:49.687Z,98171.47
2022-08-05T09:54:21.438Z,98170.69
2022-08-05T09:57:01.333Z,98171.69
2022-08-05T09:59:37.053Z,98167.94
2022-08-05T10:02:06.296Z,98163.81
2022-08-05T10:04:39.701Z,98170.50
2022-08-05T10:07:19.570Z,98165.09
2022-08-05T10:10:13.728Z,98165.91
2022-08-05T10:12:50.538Z,98154.44
2022-08-05T10:15:25.632Z,98158.63
2022-08-05T10:18:16.719Z,98158.84
2022-08-05T10:20:47.745Z,98157.19
2022-08-05T10:23:33.980Z,98155.28
2022-08-05T10:26:14.313Z,98157.38
2022-08-05T10:28:43.969Z,98156.47
2022-08-05T10:33:01.408Z,98150.50
2022-08-05T10:34:03.612Z,98139.47
2022-08-05T10:36:32.165Z,98147.75
2022-08-05T10:39:11.793Z,98142.72
2022-08-05T10:41:48.721Z,98148.19
2022-08-05T10:44:20.095Z,98139.47
2022-08-05T10:46:53.942Z,98144.88
2022-08-05T10:49:27.251Z,98140.94
2022-08-05T10:52:05.087Z,98141.16
2022-08-05T10:55:04.108Z,98141.16
2022-08-05T10:57:34.275Z,98143.00
2022-08-05T11:00:19.694Z,98146.09
2022-08-05T11:03:23.239Z,98145.09
2022-08-05T11:06:15.974Z,98134.41
2022-08-05T11:09:17.188Z,98138.59
2022-08-05T11:11:53.387Z,98137.19
2022-08-05T11:14:49.348Z,98135.50
2022-08-05T11:17:57.130Z,98138.22
2022-08-05T11:20:44.401Z,98134.19
2022-08-05T11:24:03.913Z,98124.84
2022-08-05T11:26:31.881Z,98122.38
2022-08-05T11:29:06.930Z,98124.75
2022-08-05T11:31:57.742Z,98125.25
2022-08-05T11:34:39.886Z,98118.34
2022-08-05T11:38:28.579Z,98123.00
2022-08-05T11:41:35.289Z,98130.69
2022-08-05T11:44:04.763Z,98126.50
2022-08-05T11:47:09.435Z,98126.28
2022-08-05T11:49:27.583Z,98133.50
2022-08-05T11:51:57.524Z,98128.16
2022-08-05T11:54:32.843Z,98119.41
2022-08-05T11:57:08.288Z,98131.06
2022-08-05T11:59:52.717Z,98127.59
2022-08-05T12:02:31.603Z,98127.28
2022-08-05T12:05:06.838Z,98121.69
2022-08-05T12:08:08.420Z,98117.75
2022-08-05T12:10:38.424Z,98112.13
2022-08-05T12:13:18.767Z,98108.16
2022-08-05T12:16:14.542Z,98106.09
2022-08-05T12:18:52.739Z,98112.53
2022-08-05T12:21:24.357Z,98115.34
2022-08-05T12:24:00.135Z,98105.47
2022-08-05T12:26:34.035Z,98103.41
2022-08-05T12:29:03.244Z,98102.03
2022-08-05T12:31:41.498Z,98105.22
2022-08-05T12:34:21.324Z,98096.09
2022-08-05T12:36:51.910Z,98089.16
2022-08-05T12:39:21.748Z,98093.13
2022-08-05T12:41:57.904Z,98089.00
2022-08-05T12:44:33.189Z,98097.19
2022-08-05T12:47:02.900Z,98093.84
2022-08-05T12:50:03.725Z,98085.91
2022-08-05T12:52:39.625Z,98086.97
2022-08-05T12:55:22.224Z,98088.63
2022-08-05T12:58:38.235Z,98081.16
2022-08-05T13:02:03.019Z,98086.75
2022-08-05T13:03:38.926Z,98090.72
2022-08-05T13:06:16.568Z,98080.13
2022-08-05T13:08:50.850Z,98078.44
2022-08-05T13:11:25.429Z,98084.50
2022-08-05T13:14:36.004Z,98080.34
2022-08-05T13:17:10.610Z,98075.13
2022-08-05T13:19:40.348Z,98072.00
2022-08-05T13:22:28.314Z,98067.84
2022-08-05T13:25:00.427Z,98069.72
2022-08-05T13:27:35.534Z,98071.38
2022-08-05T13:30:36.798Z,98062.84
2022-08-05T13:33:01.144Z,98069.13
2022-08-05T13:35:43.204Z,98060.13
2022-08-05T13:38:24.402Z,98059.13
2022-08-05T13:41:00.635Z,98063.69
2022-08-05T13:43:45.618Z,98058.28
2022-08-05T13:46:35.684Z,98053.69
2022-08-05T13:49:10.586Z,98049.13
2022-08-05T13:51:46.352Z,98054.72
2022-08-05T13:54:24.830Z,98056.19
2022-08-05T13:56:54.014Z,98059.75
2022-08-05T13:59:24.418Z,98059.75
2022-08-05T14:01:57.444Z,98057.22
2022-08-05T14:04:49.637Z,98062.66
2022-08-05T14:07:26.099Z,98058.28
2022-08-05T14:10:11.692Z,98062.00
2022-08-05T14:12:42.932Z,98047.22
2022-08-05T14:16:04.687Z,98052.03
2022-08-05T14:18:06.123Z,98051.81
2022-08-05T14:20:47.001Z,98049.13
2022-08-05T14:23:23.951Z,98044.53
2022-08-05T14:25:58.805Z,98035.16
2022-08-05T14:28:28.990Z,98050.75
2022-08-05T14:30:57.799Z,98044.53
2022-08-05T14:33:26.255Z,98046.22
2022-08-05T14:35:55.029Z,98038.28
2022-08-05T14:38:31.883Z,98032.69
2022-08-05T14:41:06.931Z,98038.09
2022-08-05T14:43:59.392Z,98041.63
2022-08-05T14:46:28.812Z,98026.22
2022-08-05T14:49:03.447Z,98024.31
2022-08-05T14:51:36.067Z,98025.38
2022-08-05T14:54:26.524Z,98023.50
2022-08-05T14:56:56.192Z,98019.97
2022-08-05T14:59:24.620Z,98025.38
2022-08-05T15:01:53.781Z,98036.22
2022-08-05T15:04:23.007Z,98029.97
2022-08-05T15:06:55.747Z,98022.69
2022-08-05T15:09:52.169Z,98029.13
2022-08-05T15:12:16.586Z,98032.44
2022-08-05T15:14:50.008Z,98015.78
2022-08-05T15:17:46.788Z,98018.72
2022-08-05T15:20:18.558Z,98020.16
2022-08-05T15:22:54.137Z,98018.28
2022-08-05T15:25:51.301Z,98018.47
2022-08-05T15:28:15.507Z,98016.41
2022-08-05T15:30:46.262Z,98020.16
2022-08-05T15:33:56.464Z,98011.41
2022-08-05T15:36:04.711Z,98005.81
2022-08-05T15:38:41.059Z,98006.19
2022-08-05T15:41:21.833Z,98003.69
2022-08-05T15:43:54.905Z,98009.94
2022-08-05T15:46:24.837Z,98005.38
2022-08-05T15:49:00.753Z,98003.50
2022-08-05T15:52:13.061Z,98005.38
2022-08-05T15:54:34.367Z,98005.38
2022-08-05T15:57:07.650Z,98002.44
2022-08-05T15:59:38.440Z,98003.06
2022-08-05T16:02:14.312Z,97997.03
2022-08-05T16:04:43.954Z,98004.13
2022-08-05T16:07:13.362Z,98000.78
2022-08-05T16:09:42.203Z,97999.97
2022-08-05T16:12:12.312Z,98000.78
2022-08-05T16:14:42.256Z,97998.69
2022-08-05T16:17:12.373Z,97997.66
2022-08-05T16:20:04.391Z,97994.75
2022-08-05T16:22:33.945Z,97998.03
2022-08-05T16:25:08.207Z,97993.69
2022-08-05T16:28:00.850Z,97999.28
2022-08-05T16:30:30.886Z,97995.56
2022-08-05T16:33:00.497Z,98000.75
2022-08-05T16:35:32.507Z,97998.28
2022-08-05T16:38:18.880Z,97993.69
2022-08-05T16:40:55.330Z,97998.28
2022-08-05T16:43:28.995Z,97997.22
2022-08-05T16:46:06.265Z,98002.63
2022-08-05T16:48:41.230Z,98000.97
2022-08-05T16:51:11.152Z,97993.06
2022-08-05T16:54:04.897Z,97996.59
2022-08-05T16:56:30.687Z,97998.47
2022-08-05T16:59:00.975Z,97994.94
2022-08-05T17:01:53.614Z,97991.19
2022-08-05T17:04:26.345Z,97996.59
2022-08-05T17:07:00.242Z,97984.50
2022-08-05T17:09:29.858Z,97986.38
2022-08-05T17:11:59.977Z,97983.91
2022-08-05T17:14:37.613Z,97991.19
2022-08-05T17:17:14.567Z,97991.78
2022-08-05T17:19:46.073Z,97991.19
2022-08-05T17:22:24.418Z,97992.03
2022-08-05T17:24:57.467Z,97992.41
2022-08-05T17:27:34.006Z,97993.25
2022-08-05T17:30:04.791Z,97992.19
2022-08-05T17:32:42.482Z,98002.63
2022-08-05T17:35:12.292Z,97994.50
2022-08-05T17:37:45.091Z,97994.06
2022-08-05T17:40:17.253Z,98001.59
2022-08-05T17:42:50.498Z,97996.19
2022-08-05T17:45:22.169Z,98007.59
2022-08-05T17:47:55.732Z,98007.84
2022-08-05T17:50:28.234Z,98005.31
2022-08-05T17:53:01.465Z,97992.41
2022-08-05T17:55:37.353Z,98001.59
2022-08-05T17:58:09.659Z,97997.84
2022-08-05T18:00:39.852Z,97999.47
2022-08-05T18:03:28.113Z,98003.00
2022-08-05T18:06:06.115Z,98006.56
2022-08-05T18:08:45.024Z,98003.25
2022-08-05T18:11:24.026Z,98006.78
2022-08-05T18:14:04.237Z,98003.63
2022-08-05T18:16:51.330Z,98009.47
2022-08-05T18:19:23.059Z,98008.22
2022-08-05T18:22:09.592Z,98013.44
2022-08-05T18:24:40.163Z,98009.53
2022-08-05T18:27:18.170Z,98015.34
2022-08-05T18:29:53.506Z,98016.16
2022-08-05T18:32:28.207Z,98016.16
2022-08-05T18:34:58.605Z,98019.69
2022-08-05T18:37:34.547Z,98021.56
2022-08-05T18:41:49.974Z,98018.66
2022-08-05T18:42:59.906Z,98018.88
2022-08-05T18:45:41.318Z,98024.28
2022-08-05T18:48:17.445Z,98025.34
2022-08-05T18:52:05.067Z,98018.88
2022-08-05T18:54:07.266Z,98032.41
2022-08-05T18:56:38.040Z,98038.88
2022-08-05T18:59:42.874Z,98028.03
2022-08-05T19:01:58.057Z,98023.25
2022-08-05T19:04:26.783Z,98032.59
2022-08-05T19:06:56.801Z,98025.00
2022-08-05T19:09:25.324Z,98032.28
2022-08-05T19:12:01.117Z,98031.81
2022-08-05T19:14:44.622Z,98028.06
2022-08-05T19:17:19.383Z,98033.47
2022-08-05T19:19:48.682Z,98033.03
2022-08-05T19:22:18.762Z,98041.16
2022-08-05T19:24:55.811Z,98039.06
2022-08-05T19:27:27.882Z,98041.34
2022-08-05T19:29:59.149Z,98051.56
2022-08-05T19:32:28.181Z,98049.06
2022-08-05T19:34:57.915Z,98059.06
2022-08-05T19:37:29.756Z,98052.41
2022-08-05T19:40:07.962Z,98052.22
2022-08-05T19:42:39.082Z,98054.72
2022-08-05T19:45:09.093Z,98050.31
2022-08-05T19:47:43.158Z,98047.22
2022-08-05T19:50:12.942Z,98055.56
2022-08-05T19:52:43.025Z,98044.72
2022-08-05T19:56:14.237Z,98046.84
2022-08-05T19:58:29.195Z,98052.66
2022-08-05T20:00:53.306Z,98052.66
2022-08-05T20:03:21.844Z,98048.09
2022-08-05T20:05:51.618Z,98049.97
2022-08-05T20:08:24.389Z,98047.25
2022-08-05T20:10:53.472Z,98046.22
2022-08-05T20:13:30.192Z,98054.34
2022-08-05T20:16:20.301Z,98057.06
2022-08-05T20:18:55.404Z,98049.56
2022-08-05T20:21:25.628Z,98040.81
2022-08-05T20:23:54.200Z,98048.94
2022-08-05T20:26:25.743Z,98044.53
2022-08-05T20:28:57.468Z,98043.50
2022-08-05T20:31:42.855Z,98042.69
2022-08-05T20:34:19.197Z,98044.78
2022-08-05T20:36:48.666Z,98038.75
2022-08-05T20:39:18.638Z,98043.94
2022-08-05T20:41:48.247Z,98040.41
2022-08-05T20:44:30.438Z,98046.66
2022-08-05T20:47:01.154Z,98046.88
2022-08-05T20:49:29.753Z,98049.81
2022-08-05T20:52:06.988Z,98045.41
2022-08-05T20:54:43.052Z,98050.00
2022-08-05T20:57:42.018Z,98050.22
2022-08-05T21:00:41.120Z,98052.91
2022-08-05T21:03:06.866Z,98051.88
2022-08-05T21:05:47.526Z,98049.63
2022-08-05T21:08:28.089Z,98057.75
2022-08-05T21:11:09.145Z,98065.69
2022-08-05T21:13:47.539Z,98064.00
2022-08-05T21:16:29.997Z,98064.66
2022-08-05T21:19:01.396Z,98067.53
2022-08-05T21:21:44.122Z,98074.84
2022-08-05T21:24:19.360Z,98074.00
2022-08-05T21:26:57.917Z,98070.69
2022-08-05T21:29:32.172Z,98079.44
2022-08-05T21:32:02.451Z,98075.28
2022-08-05T21:34:33.140Z,98079.63
2022-08-05T21:37:04.862Z,98083.16
2022-08-05T21:39:34.682Z,98078.81
2022-08-05T21:42:03.291Z,98073.59
2022-08-05T21:44:32.248Z,98070.06
2022-08-05T21:47:01.205Z,98078.19
2022-08-05T21:49:48.180Z,98076.09
2022-08-05T21:52:27.186Z,98069.22
2022-08-05T21:55:06.157Z,98076.28
2022-08-05T21:57:35.617Z,98072.75
2022-08-05T22:00:06.148Z,98083.59
2022-08-05T22:02:35.649Z,98077.34
2022-08-05T22:05:09.051Z,98082.56
2022-08-05T22:07:39.455Z,98083.59
2022-08-05T22:10:27.483Z,98076.53
2022-08-05T22:12:57.350Z,98089.00
2022-08-05T22:16:01.137Z,98079.84
2022-08-05T22:18:15.089Z,98081.94
2022-08-05T22:20:51.560Z,98080.44
2022-08-05T22:24:02.565Z,98082.56
2022-08-05T22:26:49.979Z,98086.53
2022-08-05T22:29:26.308Z,98084.84
2022-08-05T22:31:59.389Z,98084.84
2022-08-05T22:34:30.033Z,98081.13
2022-08-05T22:37:00.133Z,98080.88
2022-08-05T22:39:33.254Z,98079.22
2022-08-05T22:42:10.738Z,98075.91
2022-08-05T22:44:48.193Z,98077.16
2022-08-05T22:47:29.752Z,98069.88
2022-08-05T22:50:19.630Z,98072.38
2022-08-05T22:52:51.424Z,98076.97
2022-08-05T22:55:21.817Z,98069.66
2022-08-05T22:57:51.148Z,98076.53
2022-08-05T23:00:20.802Z,98067.34
2022-08-05T23:02:50.605Z,98071.13
2022-08-05T23:05:19.202Z,98069.44
2022-08-05T23:07:52.394Z,98070.28
2022-08-05T23:10:23.999Z,98071.53
2022-08-05T23:12:54.391Z,98061.97
2022-08-05T23:15:26.909Z,98059.47
2022-08-05T23:18:00.143Z,98062.81
2022-08-05T23:20:31.143Z,98062.81
2022-08-05T23:23:05.958Z,98058.44
2022-08-05T23:25:51.047Z,98053.44
2022-08-05T23:28:24.082Z,98054.47
2022-08-05T23:31:16.176Z,98057.63
2022-08-05T23:34:03.828Z,98066.97
2022-08-05T23:36:39.752Z,98066.13
2022-08-05T23:39:17.409Z,98069.47
2022-08-05T23:41:52.542Z,98067.38
2022-08-05T23:44:31.122Z,98060.09
2022-08-05T23:47:00.225Z,98061.34
2022-08-05T23:49:33.879Z,98061.16
2022-08-05T23:52:23.304Z,98061.34
2022-08-05T23:54:56.126Z,98072.38
2022-08-05T23:57:24.580Z,98078.88
